Trout Creek, Montana
Current Conditions -  °F | °C
As of 6:53 AM on Monday 26 Jan 2015 (Local Time) from KMLP Reporting Station
Few Clouds Few Clouds  
Wind Chill: 37°   Ceiling: Unl
Heat Index: 43°   Visibility: 10mi
Dew Point: 27°   Wind: 10mph
Humidity: 53%   Direction: 200°SSW
Pressure: 30.16"   Gusts: NA
Location:  47.83°N, 115.61°W
Report Text: KMLP 261353Z AUTO 20009KT 10SM FEW110 06/M03 A3016 RMK AO2 SLP163 T00611028
Loading
Personal Weather Stations






























Interactive Weather Map New forecast layout! Learn more

10-Day Weather Forecast

Advertisements
Track Severe Weather on mobile